sensor_id;sensor_type;location;lat;lon;timestamp;P1;durP1;ratioP1;P2;durP2;ratioP2
46288;SDS011;63105;46.158;14.604;2023-02-08T00:00:46;64.97;;;34.15;;
46288;SDS011;63105;46.158;14.604;2023-02-08T00:03:11;61.30;;;32.60;;
46288;SDS011;63105;46.158;14.604;2023-02-08T00:05:37;59.83;;;31.50;;
46288;SDS011;63105;46.158;14.604;2023-02-08T00:08:02;56.30;;;31.15;;
46288;SDS011;63105;46.158;14.604;2023-02-08T00:10:27;56.92;;;30.60;;
46288;SDS011;63105;46.158;14.604;2023-02-08T00:12:52;56.38;;;31.02;;
46288;SDS011;63105;46.158;14.604;2023-02-08T00:15:18;60.67;;;31.35;;
46288;SDS011;63105;46.158;14.604;2023-02-08T00:17:43;55.53;;;30.73;;
46288;SDS011;63105;46.158;14.604;2023-02-08T00:20:09;56.72;;;30.60;;
46288;SDS011;63105;46.158;14.604;2023-02-08T00:22:34;57.38;;;29.80;;
46288;SDS011;63105;46.158;14.604;2023-02-08T00:25:00;57.47;;;31.08;;
46288;SDS011;63105;46.158;14.604;2023-02-08T00:27:25;53.58;;;30.13;;
46288;SDS011;63105;46.158;14.604;2023-02-08T00:29:50;55.88;;;30.38;;
46288;SDS011;63105;46.158;14.604;2023-02-08T00:32:15;55.83;;;29.75;;
46288;SDS011;63105;46.158;14.604;2023-02-08T00:34:41;53.03;;;29.27;;
46288;SDS011;63105;46.158;14.604;2023-02-08T00:37:06;57.03;;;31.33;;
46288;SDS011;63105;46.158;14.604;2023-02-08T00:39:31;54.65;;;29.88;;
46288;SDS011;63105;46.158;14.604;2023-02-08T00:41:57;51.88;;;29.00;;
46288;SDS011;63105;46.158;14.604;2023-02-08T00:44:22;53.28;;;28.77;;
46288;SDS011;63105;46.158;14.604;2023-02-08T00:46:47;54.90;;;30.83;;
46288;SDS011;63105;46.158;14.604;2023-02-08T00:49:13;56.05;;;30.05;;
46288;SDS011;63105;46.158;14.604;2023-02-08T00:51:38;51.53;;;28.98;;
46288;SDS011;63105;46.158;14.604;2023-02-08T00:54:03;53.38;;;30.10;;
46288;SDS011;63105;46.158;14.604;2023-02-08T00:56:28;52.88;;;29.10;;
46288;SDS011;63105;46.158;14.604;2023-02-08T00:58:54;54.08;;;29.38;;
46288;SDS011;63105;46.158;14.604;2023-02-08T01:01:19;49.92;;;27.80;;
46288;SDS011;63105;46.158;14.604;2023-02-08T01:03:44;51.58;;;28.63;;
46288;SDS011;63105;46.158;14.604;2023-02-08T01:06:11;48.10;;;28.25;;
46288;SDS011;63105;46.158;14.604;2023-02-08T01:08:36;52.03;;;29.10;;
46288;SDS011;63105;46.158;14.604;2023-02-08T01:11:06;51.20;;;28.92;;
46288;SDS011;63105;46.158;14.604;2023-02-08T01:13:32;51.75;;;27.98;;
46288;SDS011;63105;46.158;14.604;2023-02-08T01:18:34;48.30;;;27.65;;
46288;SDS011;63105;46.158;14.604;2023-02-08T01:21:07;47.55;;;27.35;;
46288;SDS011;63105;46.158;14.604;2023-02-08T01:23:32;50.53;;;27.70;;
46288;SDS011;63105;46.158;14.604;2023-02-08T01:25:57;49.20;;;27.52;;
46288;SDS011;63105;46.158;14.604;2023-02-08T01:28:22;46.53;;;26.13;;
46288;SDS011;63105;46.158;14.604;2023-02-08T01:30:48;44.35;;;26.13;;
46288;SDS011;63105;46.158;14.604;2023-02-08T01:33:13;49.63;;;26.55;;
46288;SDS011;63105;46.158;14.604;2023-02-08T01:35:38;48.63;;;26.58;;
46288;SDS011;63105;46.158;14.604;2023-02-08T01:38:03;47.78;;;26.33;;
46288;SDS011;63105;46.158;14.604;2023-02-08T01:40:29;44.63;;;26.08;;
46288;SDS011;63105;46.158;14.604;2023-02-08T01:42:54;46.03;;;25.85;;
46288;SDS011;63105;46.158;14.604;2023-02-08T01:45:23;49.25;;;26.52;;
46288;SDS011;63105;46.158;14.604;2023-02-08T01:48:00;46.38;;;26.08;;
46288;SDS011;63105;46.158;14.604;2023-02-08T01:50:28;49.28;;;26.45;;
46288;SDS011;63105;46.158;14.604;2023-02-08T01:52:54;47.92;;;28.10;;
46288;SDS011;63105;46.158;14.604;2023-02-08T01:55:25;49.30;;;27.20;;
46288;SDS011;63105;46.158;14.604;2023-02-08T01:57:52;47.90;;;26.98;;
46288;SDS011;63105;46.158;14.604;2023-02-08T02:00:19;50.42;;;28.60;;
46288;SDS011;63105;46.158;14.604;2023-02-08T02:02:48;46.33;;;26.13;;
46288;SDS011;63105;46.158;14.604;2023-02-08T02:05:17;47.17;;;26.98;;
46288;SDS011;63105;46.158;14.604;2023-02-08T02:07:42;50.85;;;27.27;;
46288;SDS011;63105;46.158;14.604;2023-02-08T02:10:09;47.28;;;26.20;;
46288;SDS011;63105;46.158;14.604;2023-02-08T02:12:36;43.80;;;26.33;;
46288;SDS011;63105;46.158;14.604;2023-02-08T02:15:03;47.63;;;27.02;;
46288;SDS011;63105;46.158;14.604;2023-02-08T02:17:28;46.15;;;26.00;;
46288;SDS011;63105;46.158;14.604;2023-02-08T02:19:57;45.33;;;26.70;;
46288;SDS011;63105;46.158;14.604;2023-02-08T02:32:34;45.22;;;26.05;;
46288;SDS011;63105;46.158;14.604;2023-02-08T02:35:14;45.67;;;25.63;;
46288;SDS011;63105;46.158;14.604;2023-02-08T02:37:54;44.65;;;25.55;;
46288;SDS011;63105;46.158;14.604;2023-02-08T02:48:13;49.00;;;27.40;;
46288;SDS011;63105;46.158;14.604;2023-02-08T02:50:44;43.95;;;26.30;;
46288;SDS011;63105;46.158;14.604;2023-02-08T02:53:31;43.47;;;25.98;;
46288;SDS011;63105;46.158;14.604;2023-02-08T02:55:59;47.13;;;26.13;;
46288;SDS011;63105;46.158;14.604;2023-02-08T02:58:26;46.53;;;28.98;;
46288;SDS011;63105;46.158;14.604;2023-02-08T03:00:55;44.72;;;27.45;;
46288;SDS011;63105;46.158;14.604;2023-02-08T03:03:22;49.47;;;26.90;;
46288;SDS011;63105;46.158;14.604;2023-02-08T03:05:48;43.25;;;25.63;;
46288;SDS011;63105;46.158;14.604;2023-02-08T03:10:52;48.45;;;27.23;;
46288;SDS011;63105;46.158;14.604;2023-02-08T03:13:30;43.28;;;25.63;;
46288;SDS011;63105;46.158;14.604;2023-02-08T03:16:09;44.03;;;25.42;;
46288;SDS011;63105;46.158;14.604;2023-02-08T03:29:09;47.45;;;26.10;;
46288;SDS011;63105;46.158;14.604;2023-02-08T03:36:42;44.40;;;24.73;;
46288;SDS011;63105;46.158;14.604;2023-02-08T03:39:10;43.88;;;24.30;;
46288;SDS011;63105;46.158;14.604;2023-02-08T03:41:37;40.25;;;24.65;;
46288;SDS011;63105;46.158;14.604;2023-02-08T03:47:04;45.35;;;24.55;;
46288;SDS011;63105;46.158;14.604;2023-02-08T03:49:32;43.25;;;24.50;;
46288;SDS011;63105;46.158;14.604;2023-02-08T03:51:59;41.60;;;23.48;;
46288;SDS011;63105;46.158;14.604;2023-02-08T03:54:25;41.10;;;23.95;;
46288;SDS011;63105;46.158;14.604;2023-02-08T03:59:26;42.08;;;24.25;;
46288;SDS011;63105;46.158;14.604;2023-02-08T04:01:57;44.10;;;25.13;;
46288;SDS011;63105;46.158;14.604;2023-02-08T04:04:24;41.65;;;24.25;;
46288;SDS011;63105;46.158;14.604;2023-02-08T04:06:49;45.60;;;24.60;;
46288;SDS011;63105;46.158;14.604;2023-02-08T04:09:15;42.10;;;23.58;;
46288;SDS011;63105;46.158;14.604;2023-02-08T04:11:40;40.30;;;23.48;;
46288;SDS011;63105;46.158;14.604;2023-02-08T04:14:05;41.58;;;23.58;;
46288;SDS011;63105;46.158;14.604;2023-02-08T04:16:30;42.15;;;23.65;;
46288;SDS011;63105;46.158;14.604;2023-02-08T04:18:55;44.17;;;23.63;;
46288;SDS011;63105;46.158;14.604;2023-02-08T04:21:21;43.08;;;24.75;;
46288;SDS011;63105;46.158;14.604;2023-02-08T04:23:46;40.05;;;23.58;;
46288;SDS011;63105;46.158;14.604;2023-02-08T04:26:11;39.78;;;23.15;;
46288;SDS011;63105;46.158;14.604;2023-02-08T04:28:36;40.53;;;21.80;;
46288;SDS011;63105;46.158;14.604;2023-02-08T04:31:02;37.67;;;21.77;;
46288;SDS011;63105;46.158;14.604;2023-02-08T04:33:27;41.10;;;24.40;;
46288;SDS011;63105;46.158;14.604;2023-02-08T04:35:52;38.63;;;22.13;;
46288;SDS011;63105;46.158;14.604;2023-02-08T04:38:18;37.13;;;21.63;;
46288;SDS011;63105;46.158;14.604;2023-02-08T04:40:43;37.83;;;22.60;;
46288;SDS011;63105;46.158;14.604;2023-02-08T04:43:08;40.67;;;22.52;;
46288;SDS011;63105;46.158;14.604;2023-02-08T04:45:33;39.08;;;22.20;;
46288;SDS011;63105;46.158;14.604;2023-02-08T04:47:59;35.47;;;20.50;;
46288;SDS011;63105;46.158;14.604;2023-02-08T04:50:25;39.15;;;23.25;;
46288;SDS011;63105;46.158;14.604;2023-02-08T04:52:50;39.45;;;23.35;;
46288;SDS011;63105;46.158;14.604;2023-02-08T04:55:15;36.90;;;21.02;;
46288;SDS011;63105;46.158;14.604;2023-02-08T04:57:40;39.45;;;21.55;;
46288;SDS011;63105;46.158;14.604;2023-02-08T05:00:06;38.35;;;21.83;;
46288;SDS011;63105;46.158;14.604;2023-02-08T05:02:31;38.78;;;22.08;;
46288;SDS011;63105;46.158;14.604;2023-02-08T05:04:56;39.33;;;22.17;;
46288;SDS011;63105;46.158;14.604;2023-02-08T05:07:22;39.13;;;22.58;;
46288;SDS011;63105;46.158;14.604;2023-02-08T05:09:47;36.58;;;21.60;;
46288;SDS011;63105;46.158;14.604;2023-02-08T05:12:12;35.80;;;20.15;;
46288;SDS011;63105;46.158;14.604;2023-02-08T05:14:37;41.75;;;23.08;;
46288;SDS011;63105;46.158;14.604;2023-02-08T05:17:02;37.95;;;22.90;;
46288;SDS011;63105;46.158;14.604;2023-02-08T05:19:28;36.20;;;21.25;;
46288;SDS011;63105;46.158;14.604;2023-02-08T05:21:53;36.80;;;21.45;;
46288;SDS011;63105;46.158;14.604;2023-02-08T05:24:18;40.70;;;22.25;;
46288;SDS011;63105;46.158;14.604;2023-02-08T05:26:43;36.38;;;21.33;;
46288;SDS011;63105;46.158;14.604;2023-02-08T05:29:09;38.50;;;21.77;;
46288;SDS011;63105;46.158;14.604;2023-02-08T05:31:34;38.08;;;21.67;;
46288;SDS011;63105;46.158;14.604;2023-02-08T05:34:00;38.13;;;21.48;;
46288;SDS011;63105;46.158;14.604;2023-02-08T05:36:25;39.03;;;23.13;;
46288;SDS011;63105;46.158;14.604;2023-02-08T05:38:50;35.58;;;21.38;;
46288;SDS011;63105;46.158;14.604;2023-02-08T05:41:17;36.50;;;21.40;;
46288;SDS011;63105;46.158;14.604;2023-02-08T05:43:42;38.58;;;21.55;;
46288;SDS011;63105;46.158;14.604;2023-02-08T05:46:07;39.03;;;21.70;;
46288;SDS011;63105;46.158;14.604;2023-02-08T05:48:33;35.70;;;21.63;;
46288;SDS011;63105;46.158;14.604;2023-02-08T05:50:58;36.33;;;21.75;;
46288;SDS011;63105;46.158;14.604;2023-02-08T05:53:24;37.47;;;21.85;;
46288;SDS011;63105;46.158;14.604;2023-02-08T05:55:52;38.58;;;24.08;;
46288;SDS011;63105;46.158;14.604;2023-02-08T05:58:18;39.88;;;23.80;;
46288;SDS011;63105;46.158;14.604;2023-02-08T06:00:43;40.28;;;23.52;;
46288;SDS011;63105;46.158;14.604;2023-02-08T06:03:08;38.78;;;22.95;;
46288;SDS011;63105;46.158;14.604;2023-02-08T06:05:38;38.28;;;21.83;;
46288;SDS011;63105;46.158;14.604;2023-02-08T06:08:04;40.55;;;22.23;;
46288;SDS011;63105;46.158;14.604;2023-02-08T06:10:29;39.05;;;21.75;;
46288;SDS011;63105;46.158;14.604;2023-02-08T06:12:54;38.15;;;21.90;;
46288;SDS011;63105;46.158;14.604;2023-02-08T06:15:20;37.55;;;21.88;;
46288;SDS011;63105;46.158;14.604;2023-02-08T06:17:45;35.70;;;21.05;;
46288;SDS011;63105;46.158;14.604;2023-02-08T06:20:10;38.28;;;21.23;;
46288;SDS011;63105;46.158;14.604;2023-02-08T06:22:35;37.35;;;20.90;;
46288;SDS011;63105;46.158;14.604;2023-02-08T06:25:01;36.03;;;20.52;;
46288;SDS011;63105;46.158;14.604;2023-02-08T06:27:26;38.65;;;21.67;;
46288;SDS011;63105;46.158;14.604;2023-02-08T06:29:51;36.95;;;21.65;;
46288;SDS011;63105;46.158;14.604;2023-02-08T06:32:17;40.67;;;22.35;;
46288;SDS011;63105;46.158;14.604;2023-02-08T06:34:42;36.92;;;21.63;;
46288;SDS011;63105;46.158;14.604;2023-02-08T06:37:07;39.33;;;22.70;;
46288;SDS011;63105;46.158;14.604;2023-02-08T06:39:33;37.53;;;22.20;;
46288;SDS011;63105;46.158;14.604;2023-02-08T06:41:58;40.35;;;22.80;;
46288;SDS011;63105;46.158;14.604;2023-02-08T06:44:23;41.50;;;23.73;;
46288;SDS011;63105;46.158;14.604;2023-02-08T06:46:48;39.65;;;23.08;;
46288;SDS011;63105;46.158;14.604;2023-02-08T06:49:14;42.15;;;23.35;;
46288;SDS011;63105;46.158;14.604;2023-02-08T06:51:39;38.28;;;22.60;;
46288;SDS011;63105;46.158;14.604;2023-02-08T06:54:04;40.85;;;23.92;;
46288;SDS011;63105;46.158;14.604;2023-02-08T06:56:30;39.63;;;23.95;;
46288;SDS011;63105;46.158;14.604;2023-02-08T06:58:55;43.38;;;25.08;;
46288;SDS011;63105;46.158;14.604;2023-02-08T07:01:20;41.60;;;23.50;;
46288;SDS011;63105;46.158;14.604;2023-02-08T07:03:46;43.25;;;23.95;;
46288;SDS011;63105;46.158;14.604;2023-02-08T07:06:14;41.67;;;24.98;;
46288;SDS011;63105;46.158;14.604;2023-02-08T07:08:40;41.53;;;24.42;;
46288;SDS011;63105;46.158;14.604;2023-02-08T07:11:09;41.97;;;24.17;;
46288;SDS011;63105;46.158;14.604;2023-02-08T07:13:35;41.70;;;24.65;;
46288;SDS011;63105;46.158;14.604;2023-02-08T07:16:01;42.65;;;25.40;;
46288;SDS011;63105;46.158;14.604;2023-02-08T07:18:26;42.15;;;25.45;;
46288;SDS011;63105;46.158;14.604;2023-02-08T07:20:51;41.50;;;24.92;;
46288;SDS011;63105;46.158;14.604;2023-02-08T07:23:17;39.10;;;23.98;;
46288;SDS011;63105;46.158;14.604;2023-02-08T07:25:42;41.70;;;24.33;;
46288;SDS011;63105;46.158;14.604;2023-02-08T07:28:07;37.88;;;23.55;;
46288;SDS011;63105;46.158;14.604;2023-02-08T07:30:32;41.92;;;24.25;;
46288;SDS011;63105;46.158;14.604;2023-02-08T07:32:57;41.03;;;23.65;;
46288;SDS011;63105;46.158;14.604;2023-02-08T07:35:23;42.80;;;24.48;;
46288;SDS011;63105;46.158;14.604;2023-02-08T07:37:48;43.65;;;26.48;;
46288;SDS011;63105;46.158;14.604;2023-02-08T07:40:13;43.97;;;26.63;;
46288;SDS011;63105;46.158;14.604;2023-02-08T07:42:38;47.03;;;28.20;;
46288;SDS011;63105;46.158;14.604;2023-02-08T07:45:04;43.67;;;26.70;;
46288;SDS011;63105;46.158;14.604;2023-02-08T07:47:29;50.05;;;28.70;;
46288;SDS011;63105;46.158;14.604;2023-02-08T07:49:54;50.13;;;28.65;;
46288;SDS011;63105;46.158;14.604;2023-02-08T07:52:19;49.33;;;29.25;;
46288;SDS011;63105;46.158;14.604;2023-02-08T07:54:45;50.33;;;29.55;;
46288;SDS011;63105;46.158;14.604;2023-02-08T07:57:10;52.75;;;30.70;;
46288;SDS011;63105;46.158;14.604;2023-02-08T07:59:35;53.33;;;30.15;;
46288;SDS011;63105;46.158;14.604;2023-02-08T08:02:00;55.53;;;32.10;;
46288;SDS011;63105;46.158;14.604;2023-02-08T08:04:26;50.22;;;30.63;;
46288;SDS011;63105;46.158;14.604;2023-02-08T08:06:51;54.60;;;31.90;;
46288;SDS011;63105;46.158;14.604;2023-02-08T08:09:17;57.75;;;30.80;;
46288;SDS011;63105;46.158;14.604;2023-02-08T08:11:44;69.90;;;42.03;;
46288;SDS011;63105;46.158;14.604;2023-02-08T08:14:09;50.65;;;30.25;;
46288;SDS011;63105;46.158;14.604;2023-02-08T08:16:34;54.15;;;31.15;;
46288;SDS011;63105;46.158;14.604;2023-02-08T08:19:00;48.45;;;29.63;;
46288;SDS011;63105;46.158;14.604;2023-02-08T08:21:25;51.97;;;30.10;;
46288;SDS011;63105;46.158;14.604;2023-02-08T08:23:50;50.50;;;30.23;;
46288;SDS011;63105;46.158;14.604;2023-02-08T08:26:17;53.72;;;30.58;;
46288;SDS011;63105;46.158;14.604;2023-02-08T08:28:42;53.85;;;32.33;;
46288;SDS011;63105;46.158;14.604;2023-02-08T08:31:09;58.03;;;34.13;;
46288;SDS011;63105;46.158;14.604;2023-02-08T08:33:34;63.90;;;36.90;;
46288;SDS011;63105;46.158;14.604;2023-02-08T08:35:59;63.47;;;36.75;;
46288;SDS011;63105;46.158;14.604;2023-02-08T08:38:24;67.00;;;38.90;;
46288;SDS011;63105;46.158;14.604;2023-02-08T08:40:50;64.72;;;38.50;;
46288;SDS011;63105;46.158;14.604;2023-02-08T08:43:15;64.40;;;37.75;;
46288;SDS011;63105;46.158;14.604;2023-02-08T08:45:40;65.97;;;37.63;;
46288;SDS011;63105;46.158;14.604;2023-02-08T08:48:06;65.93;;;37.65;;
46288;SDS011;63105;46.158;14.604;2023-02-08T08:50:31;56.72;;;35.22;;
46288;SDS011;63105;46.158;14.604;2023-02-08T08:52:56;63.28;;;36.88;;
46288;SDS011;63105;46.158;14.604;2023-02-08T08:55:21;62.17;;;36.03;;
46288;SDS011;63105;46.158;14.604;2023-02-08T08:57:47;61.50;;;35.60;;
46288;SDS011;63105;46.158;14.604;2023-02-08T09:00:12;58.55;;;34.67;;
46288;SDS011;63105;46.158;14.604;2023-02-08T09:02:37;60.53;;;36.15;;
46288;SDS011;63105;46.158;14.604;2023-02-08T09:05:03;62.33;;;36.33;;
46288;SDS011;63105;46.158;14.604;2023-02-08T09:07:29;59.17;;;35.67;;
46288;SDS011;63105;46.158;14.604;2023-02-08T09:09:54;57.33;;;34.30;;
46288;SDS011;63105;46.158;14.604;2023-02-08T09:12:20;57.42;;;34.28;;
46288;SDS011;63105;46.158;14.604;2023-02-08T09:14:45;56.20;;;34.35;;
46288;SDS011;63105;46.158;14.604;2023-02-08T09:17:10;59.22;;;35.03;;
46288;SDS011;63105;46.158;14.604;2023-02-08T09:19:36;56.42;;;34.40;;
46288;SDS011;63105;46.158;14.604;2023-02-08T09:22:01;55.58;;;34.40;;
46288;SDS011;63105;46.158;14.604;2023-02-08T09:24:26;52.80;;;32.83;;
46288;SDS011;63105;46.158;14.604;2023-02-08T09:26:51;53.67;;;33.88;;
46288;SDS011;63105;46.158;14.604;2023-02-08T09:29:17;56.75;;;33.83;;
46288;SDS011;63105;46.158;14.604;2023-02-08T09:31:42;56.95;;;33.53;;
46288;SDS011;63105;46.158;14.604;2023-02-08T09:34:07;53.15;;;31.92;;
46288;SDS011;63105;46.158;14.604;2023-02-08T09:36:34;51.03;;;29.88;;
46288;SDS011;63105;46.158;14.604;2023-02-08T09:39:01;51.78;;;31.90;;
46288;SDS011;63105;46.158;14.604;2023-02-08T09:41:39;50.88;;;30.75;;
46288;SDS011;63105;46.158;14.604;2023-02-08T09:44:12;47.47;;;29.80;;
46288;SDS011;63105;46.158;14.604;2023-02-08T09:46:40;48.22;;;30.77;;
46288;SDS011;63105;46.158;14.604;2023-02-08T09:49:08;49.53;;;29.88;;
46288;SDS011;63105;46.158;14.604;2023-02-08T09:52:19;50.08;;;30.13;;
46288;SDS011;63105;46.158;14.604;2023-02-08T09:56:52;47.28;;;27.95;;
46288;SDS011;63105;46.158;14.604;2023-02-08T09:59:25;47.00;;;29.42;;
46288;SDS011;63105;46.158;14.604;2023-02-08T10:01:52;44.75;;;25.40;;
46288;SDS011;63105;46.158;14.604;2023-02-08T10:04:25;45.92;;;24.70;;
46288;SDS011;63105;46.158;14.604;2023-02-08T10:06:52;42.33;;;25.08;;
46288;SDS011;63105;46.158;14.604;2023-02-08T10:09:17;38.72;;;22.60;;
46288;SDS011;63105;46.158;14.604;2023-02-08T10:17:07;32.28;;;20.08;;
46288;SDS011;63105;46.158;14.604;2023-02-08T10:22:24;33.53;;;18.77;;
46288;SDS011;63105;46.158;14.604;2023-02-08T10:27:17;33.20;;;20.05;;
46288;SDS011;63105;46.158;14.604;2023-02-08T10:35:12;37.67;;;22.38;;
46288;SDS011;63105;46.158;14.604;2023-02-08T10:37:39;35.20;;;21.50;;
46288;SDS011;63105;46.158;14.604;2023-02-08T10:42:36;33.60;;;20.75;;
46288;SDS011;63105;46.158;14.604;2023-02-08T10:45:07;32.25;;;20.27;;
46288;SDS011;63105;46.158;14.604;2023-02-08T10:47:41;30.05;;;18.52;;
46288;SDS011;63105;46.158;14.604;2023-02-08T10:52:39;25.27;;;15.68;;
46288;SDS011;63105;46.158;14.604;2023-02-08T10:55:12;28.70;;;16.85;;
46288;SDS011;63105;46.158;14.604;2023-02-08T10:57:38;28.55;;;17.65;;
46288;SDS011;63105;46.158;14.604;2023-02-08T11:00:05;29.83;;;18.42;;
46288;SDS011;63105;46.158;14.604;2023-02-08T11:02:31;32.80;;;18.00;;
46288;SDS011;63105;46.158;14.604;2023-02-08T11:04:58;29.42;;;16.23;;
46288;SDS011;63105;46.158;14.604;2023-02-08T11:07:24;29.45;;;17.65;;
46288;SDS011;63105;46.158;14.604;2023-02-08T11:09:49;25.83;;;14.93;;
46288;SDS011;63105;46.158;14.604;2023-02-08T11:12:23;25.90;;;15.30;;
46288;SDS011;63105;46.158;14.604;2023-02-08T11:14:51;17.88;;;10.70;;
46288;SDS011;63105;46.158;14.604;2023-02-08T11:17:22;17.42;;;10.00;;
46288;SDS011;63105;46.158;14.604;2023-02-08T11:19:48;22.80;;;12.43;;
46288;SDS011;63105;46.158;14.604;2023-02-08T11:22:15;18.98;;;10.50;;
46288;SDS011;63105;46.158;14.604;2023-02-08T11:24:41;17.92;;;9.98;;
46288;SDS011;63105;46.158;14.604;2023-02-08T11:29:47;15.93;;;9.48;;
46288;SDS011;63105;46.158;14.604;2023-02-08T11:32:33;15.13;;;9.20;;
46288;SDS011;63105;46.158;14.604;2023-02-08T11:35:10;16.27;;;9.63;;
46288;SDS011;63105;46.158;14.604;2023-02-08T11:37:35;16.05;;;9.20;;
46288;SDS011;63105;46.158;14.604;2023-02-08T11:40:01;16.30;;;10.18;;
46288;SDS011;63105;46.158;14.604;2023-02-08T11:42:31;15.45;;;9.50;;
46288;SDS011;63105;46.158;14.604;2023-02-08T11:44:59;15.05;;;9.15;;
46288;SDS011;63105;46.158;14.604;2023-02-08T11:47:25;16.88;;;9.60;;
46288;SDS011;63105;46.158;14.604;2023-02-08T11:49:53;18.25;;;8.98;;
46288;SDS011;63105;46.158;14.604;2023-02-08T11:52:22;14.57;;;9.15;;
46288;SDS011;63105;46.158;14.604;2023-02-08T11:54:51;15.18;;;8.57;;
46288;SDS011;63105;46.158;14.604;2023-02-08T11:59:46;15.35;;;9.43;;
46288;SDS011;63105;46.158;14.604;2023-02-08T12:02:28;16.02;;;9.40;;
46288;SDS011;63105;46.158;14.604;2023-02-08T12:04:53;14.23;;;8.20;;
46288;SDS011;63105;46.158;14.604;2023-02-08T12:07:20;13.95;;;8.30;;
46288;SDS011;63105;46.158;14.604;2023-02-08T12:10:01;15.25;;;8.52;;
46288;SDS011;63105;46.158;14.604;2023-02-08T12:15:10;15.85;;;8.90;;
46288;SDS011;63105;46.158;14.604;2023-02-08T12:20:25;14.57;;;8.20;;
46288;SDS011;63105;46.158;14.604;2023-02-08T12:25:26;13.27;;;8.35;;
46288;SDS011;63105;46.158;14.604;2023-02-08T12:35:22;15.35;;;8.85;;
46288;SDS011;63105;46.158;14.604;2023-02-08T12:37:57;15.05;;;9.27;;
46288;SDS011;63105;46.158;14.604;2023-02-08T12:53:49;17.08;;;9.73;;
46288;SDS011;63105;46.158;14.604;2023-02-08T12:56:18;19.98;;;9.88;;
46288;SDS011;63105;46.158;14.604;2023-02-08T12:58:45;19.38;;;10.65;;
46288;SDS011;63105;46.158;14.604;2023-02-08T13:06:03;16.58;;;10.48;;
46288;SDS011;63105;46.158;14.604;2023-02-08T13:08:31;18.95;;;10.10;;
46288;SDS011;63105;46.158;14.604;2023-02-08T13:10:59;18.60;;;9.98;;
46288;SDS011;63105;46.158;14.604;2023-02-08T13:13:30;17.25;;;10.23;;
46288;SDS011;63105;46.158;14.604;2023-02-08T13:18:46;18.50;;;10.43;;
46288;SDS011;63105;46.158;14.604;2023-02-08T13:21:25;17.27;;;10.70;;
46288;SDS011;63105;46.158;14.604;2023-02-08T13:23:52;19.83;;;10.68;;
46288;SDS011;63105;46.158;14.604;2023-02-08T13:26:29;19.65;;;11.50;;
46288;SDS011;63105;46.158;14.604;2023-02-08T13:28:56;18.05;;;10.48;;
46288;SDS011;63105;46.158;14.604;2023-02-08T13:31:26;16.85;;;10.52;;
46288;SDS011;63105;46.158;14.604;2023-02-08T13:33:54;19.30;;;11.35;;
46288;SDS011;63105;46.158;14.604;2023-02-08T13:36:25;19.92;;;12.05;;
46288;SDS011;63105;46.158;14.604;2023-02-08T13:38:51;20.25;;;11.63;;
46288;SDS011;63105;46.158;14.604;2023-02-08T13:41:17;20.70;;;12.38;;
46288;SDS011;63105;46.158;14.604;2023-02-08T13:46:18;22.30;;;11.70;;
46288;SDS011;63105;46.158;14.604;2023-02-08T13:59:02;25.30;;;14.73;;
46288;SDS011;63105;46.158;14.604;2023-02-08T14:01:28;27.90;;;16.70;;
46288;SDS011;63105;46.158;14.604;2023-02-08T14:06:32;26.38;;;15.20;;
46288;SDS011;63105;46.158;14.604;2023-02-08T14:13:59;25.08;;;14.98;;
46288;SDS011;63105;46.158;14.604;2023-02-08T14:16:37;25.95;;;15.75;;
46288;SDS011;63105;46.158;14.604;2023-02-08T14:21:42;24.85;;;15.85;;
46288;SDS011;63105;46.158;14.604;2023-02-08T14:24:19;26.55;;;16.02;;
46288;SDS011;63105;46.158;14.604;2023-02-08T14:26:45;28.08;;;16.73;;
46288;SDS011;63105;46.158;14.604;2023-02-08T14:29:15;27.00;;;15.68;;
46288;SDS011;63105;46.158;14.604;2023-02-08T14:31:43;32.72;;;19.42;;
46288;SDS011;63105;46.158;14.604;2023-02-08T14:36:52;32.60;;;21.05;;
46288;SDS011;63105;46.158;14.604;2023-02-08T14:39:29;31.52;;;19.90;;
46288;SDS011;63105;46.158;14.604;2023-02-08T14:41:55;37.35;;;21.02;;
46288;SDS011;63105;46.158;14.604;2023-02-08T14:49:46;36.42;;;19.20;;
46288;SDS011;63105;46.158;14.604;2023-02-08T14:52:12;36.22;;;20.58;;
46288;SDS011;63105;46.158;14.604;2023-02-08T14:54:44;29.80;;;18.40;;
46288;SDS011;63105;46.158;14.604;2023-02-08T14:57:30;33.58;;;20.95;;
46288;SDS011;63105;46.158;14.604;2023-02-08T14:59:58;30.85;;;18.52;;
46288;SDS011;63105;46.158;14.604;2023-02-08T15:02:24;29.38;;;18.38;;
46288;SDS011;63105;46.158;14.604;2023-02-08T15:04:55;28.45;;;18.35;;
46288;SDS011;63105;46.158;14.604;2023-02-08T15:10:16;30.98;;;18.02;;
46288;SDS011;63105;46.158;14.604;2023-02-08T15:12:43;31.23;;;18.90;;
46288;SDS011;63105;46.158;14.604;2023-02-08T15:17:53;29.02;;;19.05;;
46288;SDS011;63105;46.158;14.604;2023-02-08T15:22:44;34.53;;;20.23;;
46288;SDS011;63105;46.158;14.604;2023-02-08T15:25:16;31.38;;;19.48;;
46288;SDS011;63105;46.158;14.604;2023-02-08T15:27:46;31.48;;;19.13;;
46288;SDS011;63105;46.158;14.604;2023-02-08T15:30:20;33.30;;;19.00;;
46288;SDS011;63105;46.158;14.604;2023-02-08T15:32:46;28.48;;;18.30;;
46288;SDS011;63105;46.158;14.604;2023-02-08T15:35:12;29.55;;;19.48;;
46288;SDS011;63105;46.158;14.604;2023-02-08T15:37:42;35.13;;;19.98;;
46288;SDS011;63105;46.158;14.604;2023-02-08T15:40:28;35.22;;;20.15;;
46288;SDS011;63105;46.158;14.604;2023-02-08T15:42:54;34.15;;;19.95;;
46288;SDS011;63105;46.158;14.604;2023-02-08T15:45:28;38.00;;;20.17;;
46288;SDS011;63105;46.158;14.604;2023-02-08T15:47:57;32.05;;;19.23;;
46288;SDS011;63105;46.158;14.604;2023-02-08T15:50:22;35.42;;;20.58;;
46288;SDS011;63105;46.158;14.604;2023-02-08T15:52:50;32.17;;;18.35;;
46288;SDS011;63105;46.158;14.604;2023-02-08T15:55:18;37.00;;;20.10;;
46288;SDS011;63105;46.158;14.604;2023-02-08T15:57:45;32.10;;;19.25;;
46288;SDS011;63105;46.158;14.604;2023-02-08T16:00:15;33.80;;;19.13;;
46288;SDS011;63105;46.158;14.604;2023-02-08T16:02:48;33.70;;;18.88;;
46288;SDS011;63105;46.158;14.604;2023-02-08T16:06:19;37.63;;;21.65;;
46288;SDS011;63105;46.158;14.604;2023-02-08T16:08:13;33.42;;;20.35;;
46288;SDS011;63105;46.158;14.604;2023-02-08T16:10:43;36.55;;;20.77;;
46288;SDS011;63105;46.158;14.604;2023-02-08T16:13:16;36.75;;;20.40;;
46288;SDS011;63105;46.158;14.604;2023-02-08T16:20:56;36.70;;;21.20;;
46288;SDS011;63105;46.158;14.604;2023-02-08T16:23:22;34.45;;;20.70;;
46288;SDS011;63105;46.158;14.604;2023-02-08T16:25:54;35.88;;;20.20;;
46288;SDS011;63105;46.158;14.604;2023-02-08T16:30:48;31.38;;;19.30;;
46288;SDS011;63105;46.158;14.604;2023-02-08T16:33:14;34.83;;;19.75;;
46288;SDS011;63105;46.158;14.604;2023-02-08T16:35:39;36.63;;;20.38;;
46288;SDS011;63105;46.158;14.604;2023-02-08T16:38:05;32.88;;;20.50;;
46288;SDS011;63105;46.158;14.604;2023-02-08T16:40:41;31.98;;;19.23;;
46288;SDS011;63105;46.158;14.604;2023-02-08T16:43:17;32.53;;;19.98;;
46288;SDS011;63105;46.158;14.604;2023-02-08T16:45:42;32.10;;;18.83;;